CheckWX is a tool to help pilots better visualize weather data.  It is not intended as a substitute for an official pre-flight weather briefing.

18:04:09 UTC

KACV TAF
California Redwood Coast-Humboldt County Airport
Arcata/Eureka, California, USA
KACV 171735Z 1718/1818 24006KT P6SM VCSH SCT060 FM172100 31012KT P6SM SCT100 FM180400 08003KT P6SM SKC FM180900 08003KT 6SM BR SCT002

Feb-17@
18:00 UTC

Feb-17 @ 18:00 UTC

Feb-17@
21:00 UTC

Feb-17 @ 21:00 UTC

KACV 171735Z 1718/1818 24006KT P6SM VCSH SCT060
Wind
  • 240° at 6 KTS
Visibility
Greater than 6 SM
Cloud Levels
  • Scattered at 6,000' AGL

Feb-17@
21:00 UTC

Feb-17 @ 21:00 UTC

Feb-18@
04:00 UTC

Feb-18 @ 04:00 UTC

FM172100 31012KT P6SM SCT100

From

FromStandard forecast or significant change

Wind
  • 310° at 12 KTS
Visibility
Greater than 6 SM
Cloud Levels
  • Scattered at 10,000' AGL

Feb-18@
04:00 UTC

Feb-18 @ 04:00 UTC

Feb-18@
09:00 UTC

Feb-18 @ 09:00 UTC

FM180400 08003KT P6SM SKC

From

FromStandard forecast or significant change

Wind
  • 080° at 3 KTS
Visibility
Greater than 6 SM
Cloud Levels
  • Clear skies

Feb-18@
09:00 UTC

Feb-18 @ 09:00 UTC

Feb-18@
18:00 UTC

Feb-18 @ 18:00 UTC

FM180900 08003KT 6SM BR SCT002

From

FromStandard forecast or significant change

Wind
  • 080° at 3 KTS
Visibility
6 SM
Conditions
Mist
Cloud Levels
  • Scattered at 200' AGL